Denver, Colorado
Current Conditions -  °F | °C
As of 1:58 AM on Wednesday 22 Oct 2014 (Local Time) from KBKF Reporting Station
Broken Clouds Broken Clouds  
Wind Chill: 12°   Ceiling: 20000
Heat Index: 12°   Visibility: 10mi
Dew Point:   Wind: 8mph
Humidity: 67%   Direction: 120°ESE
Pressure: 30"   Gusts: NA
Location:  39.74°N, 104.99°W
Report Text: KBKF 220758Z 12007KT 10SM FEW060 SCT100 BKN200 12/06 A3000 RMK AO2A RAE0706 SLP094 P0000 T01180059
Loading
Personal Weather Stations






























Interactive Weather Map New forecast layout! Learn more

10-Day Weather Forecast

Advertisements
Track Severe Weather on mobile